sensor_id;sensor_type;location;lat;lon;timestamp;P1;durP1;ratioP1;P2;durP2;ratioP2
48203;SDS011;33994;50.998;5.864;2022-11-15T00:00:48;16.40;;;9.32;;
48203;SDS011;33994;50.998;5.864;2022-11-15T00:03:53;17.05;;;9.55;;
48203;SDS011;33994;50.998;5.864;2022-11-15T00:06:57;20.02;;;9.25;;
48203;SDS011;33994;50.998;5.864;2022-11-15T00:10:01;14.60;;;8.93;;
48203;SDS011;33994;50.998;5.864;2022-11-15T00:13:06;15.85;;;9.43;;
48203;SDS011;33994;50.998;5.864;2022-11-15T00:16:12;16.30;;;10.00;;
48203;SDS011;33994;50.998;5.864;2022-11-15T00:19:16;17.60;;;9.60;;
48203;SDS011;33994;50.998;5.864;2022-11-15T00:22:20;17.98;;;9.15;;
48203;SDS011;33994;50.998;5.864;2022-11-15T00:25:25;16.30;;;9.68;;
48203;SDS011;33994;50.998;5.864;2022-11-15T00:28:30;17.15;;;9.93;;
48203;SDS011;33994;50.998;5.864;2022-11-15T00:31:36;16.17;;;8.75;;
48203;SDS011;33994;50.998;5.864;2022-11-15T00:34:40;20.83;;;9.75;;
48203;SDS011;33994;50.998;5.864;2022-11-15T00:37:45;17.83;;;9.10;;
48203;SDS011;33994;50.998;5.864;2022-11-15T00:40:50;17.77;;;9.30;;
48203;SDS011;33994;50.998;5.864;2022-11-15T00:43:54;14.77;;;8.68;;
48203;SDS011;33994;50.998;5.864;2022-11-15T00:47:00;13.95;;;7.68;;
48203;SDS011;33994;50.998;5.864;2022-11-15T00:50:04;17.15;;;8.20;;
48203;SDS011;33994;50.998;5.864;2022-11-15T00:53:09;15.82;;;8.93;;
48203;SDS011;33994;50.998;5.864;2022-11-15T00:56:13;14.38;;;8.00;;
48203;SDS011;33994;50.998;5.864;2022-11-15T00:59:17;15.07;;;8.15;;
48203;SDS011;33994;50.998;5.864;2022-11-15T01:02:23;22.23;;;10.10;;
48203;SDS011;33994;50.998;5.864;2022-11-15T01:05:27;14.23;;;8.65;;
48203;SDS011;33994;50.998;5.864;2022-11-15T01:08:32;12.77;;;7.88;;
48203;SDS011;33994;50.998;5.864;2022-11-15T01:11:37;15.43;;;8.30;;
48203;SDS011;33994;50.998;5.864;2022-11-15T01:14:41;16.98;;;8.10;;
48203;SDS011;33994;50.998;5.864;2022-11-15T01:17:46;16.95;;;8.98;;
48203;SDS011;33994;50.998;5.864;2022-11-15T01:20:50;16.50;;;8.70;;
48203;SDS011;33994;50.998;5.864;2022-11-15T01:23:55;15.57;;;8.10;;
48203;SDS011;33994;50.998;5.864;2022-11-15T01:27:00;15.55;;;8.82;;
48203;SDS011;33994;50.998;5.864;2022-11-15T01:30:05;14.25;;;8.65;;
48203;SDS011;33994;50.998;5.864;2022-11-15T01:33:12;18.02;;;9.20;;
48203;SDS011;33994;50.998;5.864;2022-11-15T01:36:18;18.13;;;9.10;;
48203;SDS011;33994;50.998;5.864;2022-11-15T01:42:28;16.27;;;8.77;;
48203;SDS011;33994;50.998;5.864;2022-11-15T01:45:32;15.50;;;9.07;;
48203;SDS011;33994;50.998;5.864;2022-11-15T01:48:38;16.70;;;9.15;;
48203;SDS011;33994;50.998;5.864;2022-11-15T01:51:43;13.20;;;8.18;;
48203;SDS011;33994;50.998;5.864;2022-11-15T01:54:48;15.95;;;8.43;;
48203;SDS011;33994;50.998;5.864;2022-11-15T01:57:57;17.80;;;8.43;;
48203;SDS011;33994;50.998;5.864;2022-11-15T02:01:04;16.95;;;9.00;;
48203;SDS011;33994;50.998;5.864;2022-11-15T02:04:10;14.18;;;8.18;;
48203;SDS011;33994;50.998;5.864;2022-11-15T02:07:18;17.85;;;8.40;;
48203;SDS011;33994;50.998;5.864;2022-11-15T02:10:25;15.38;;;8.70;;
48203;SDS011;33994;50.998;5.864;2022-11-15T02:13:29;17.67;;;9.20;;
48203;SDS011;33994;50.998;5.864;2022-11-15T02:16:34;13.65;;;8.27;;
48203;SDS011;33994;50.998;5.864;2022-11-15T02:19:59;16.48;;;8.25;;
48203;SDS011;33994;50.998;5.864;2022-11-15T02:27:16;15.60;;;7.60;;
48203;SDS011;33994;50.998;5.864;2022-11-15T02:30:52;12.60;;;8.10;;
48203;SDS011;33994;50.998;5.864;2022-11-15T02:34:02;15.10;;;8.30;;
48203;SDS011;33994;50.998;5.864;2022-11-15T02:37:14;14.02;;;8.60;;
48203;SDS011;33994;50.998;5.864;2022-11-15T02:40:23;12.60;;;8.48;;
48203;SDS011;33994;50.998;5.864;2022-11-15T02:43:38;17.25;;;8.40;;
48203;SDS011;33994;50.998;5.864;2022-11-15T02:47:02;15.52;;;9.05;;
48203;SDS011;33994;50.998;5.864;2022-11-15T02:50:17;13.57;;;8.95;;
48203;SDS011;33994;50.998;5.864;2022-11-15T02:53:24;16.60;;;8.70;;
48203;SDS011;33994;50.998;5.864;2022-11-15T02:56:28;15.35;;;8.82;;
48203;SDS011;33994;50.998;5.864;2022-11-15T03:03:15;12.77;;;8.25;;
48203;SDS011;33994;50.998;5.864;2022-11-15T03:06:34;12.70;;;7.68;;
48203;SDS011;33994;50.998;5.864;2022-11-15T03:09:45;18.88;;;7.60;;
48203;SDS011;33994;50.998;5.864;2022-11-15T03:12:56;14.73;;;7.65;;
48203;SDS011;33994;50.998;5.864;2022-11-15T03:16:05;16.63;;;8.00;;
48203;SDS011;33994;50.998;5.864;2022-11-15T03:19:21;10.45;;;6.85;;
48203;SDS011;33994;50.998;5.864;2022-11-15T03:22:33;15.30;;;6.85;;
48203;SDS011;33994;50.998;5.864;2022-11-15T03:25:41;12.25;;;7.32;;
48203;SDS011;33994;50.998;5.864;2022-11-15T03:28:50;12.25;;;6.47;;
48203;SDS011;33994;50.998;5.864;2022-11-15T03:31:58;10.32;;;6.38;;
48203;SDS011;33994;50.998;5.864;2022-11-15T03:35:08;10.10;;;6.22;;
48203;SDS011;33994;50.998;5.864;2022-11-15T03:38:17;13.35;;;6.70;;
48203;SDS011;33994;50.998;5.864;2022-11-15T03:41:27;9.65;;;6.47;;
48203;SDS011;33994;50.998;5.864;2022-11-15T03:44:36;9.13;;;5.53;;
48203;SDS011;33994;50.998;5.864;2022-11-15T03:47:47;7.85;;;5.47;;
48203;SDS011;33994;50.998;5.864;2022-11-15T03:50:57;11.15;;;5.75;;
48203;SDS011;33994;50.998;5.864;2022-11-15T03:54:02;10.75;;;5.60;;
48203;SDS011;33994;50.998;5.864;2022-11-15T03:57:07;9.05;;;5.40;;
48203;SDS011;33994;50.998;5.864;2022-11-15T04:00:11;9.20;;;5.95;;
48203;SDS011;33994;50.998;5.864;2022-11-15T04:03:16;11.75;;;6.00;;
48203;SDS011;33994;50.998;5.864;2022-11-15T04:06:21;8.10;;;5.85;;
48203;SDS011;33994;50.998;5.864;2022-11-15T04:09:26;8.98;;;5.32;;
48203;SDS011;33994;50.998;5.864;2022-11-15T04:12:30;14.43;;;5.72;;
48203;SDS011;33994;50.998;5.864;2022-11-15T04:15:35;10.30;;;5.93;;
48203;SDS011;33994;50.998;5.864;2022-11-15T04:18:39;8.60;;;6.00;;
48203;SDS011;33994;50.998;5.864;2022-11-15T04:21:45;7.57;;;5.57;;
48203;SDS011;33994;50.998;5.864;2022-11-15T04:25:07;9.25;;;5.63;;
48203;SDS011;33994;50.998;5.864;2022-11-15T04:28:11;13.52;;;5.63;;
48203;SDS011;33994;50.998;5.864;2022-11-15T04:31:16;10.88;;;5.75;;
48203;SDS011;33994;50.998;5.864;2022-11-15T04:34:20;9.00;;;4.93;;
48203;SDS011;33994;50.998;5.864;2022-11-15T04:37:26;8.75;;;5.57;;
48203;SDS011;33994;50.998;5.864;2022-11-15T04:40:30;10.45;;;5.97;;
48203;SDS011;33994;50.998;5.864;2022-11-15T04:43:34;9.90;;;6.05;;
48203;SDS011;33994;50.998;5.864;2022-11-15T04:46:39;7.53;;;5.57;;
48203;SDS011;33994;50.998;5.864;2022-11-15T04:49:43;12.15;;;5.05;;
48203;SDS011;33994;50.998;5.864;2022-11-15T04:52:51;10.10;;;5.63;;
48203;SDS011;33994;50.998;5.864;2022-11-15T04:55:57;9.02;;;5.05;;
48203;SDS011;33994;50.998;5.864;2022-11-15T04:59:01;10.07;;;5.72;;
48203;SDS011;33994;50.998;5.864;2022-11-15T05:02:06;6.15;;;4.40;;
48203;SDS011;33994;50.998;5.864;2022-11-15T05:05:10;7.97;;;4.82;;
48203;SDS011;33994;50.998;5.864;2022-11-15T05:08:15;12.27;;;4.82;;
48203;SDS011;33994;50.998;5.864;2022-11-15T05:11:19;8.80;;;5.05;;
48203;SDS011;33994;50.998;5.864;2022-11-15T05:14:23;8.05;;;4.40;;
48203;SDS011;33994;50.998;5.864;2022-11-15T05:17:28;4.72;;;3.72;;
48203;SDS011;33994;50.998;5.864;2022-11-15T05:20:32;6.30;;;3.85;;
48203;SDS011;33994;50.998;5.864;2022-11-15T05:23:38;6.20;;;4.03;;
48203;SDS011;33994;50.998;5.864;2022-11-15T05:26:42;8.00;;;3.88;;
48203;SDS011;33994;50.998;5.864;2022-11-15T05:29:47;5.60;;;3.88;;
48203;SDS011;33994;50.998;5.864;2022-11-15T05:32:51;4.25;;;3.35;;
48203;SDS011;33994;50.998;5.864;2022-11-15T05:35:56;4.97;;;3.65;;
48203;SDS011;33994;50.998;5.864;2022-11-15T05:39:07;8.57;;;4.57;;
48203;SDS011;33994;50.998;5.864;2022-11-15T05:42:12;7.28;;;3.78;;
48203;SDS011;33994;50.998;5.864;2022-11-15T05:45:18;5.63;;;3.85;;
48203;SDS011;33994;50.998;5.864;2022-11-15T05:48:23;4.25;;;3.13;;
48203;SDS011;33994;50.998;5.864;2022-11-15T05:51:27;4.78;;;3.75;;
48203;SDS011;33994;50.998;5.864;2022-11-15T05:54:34;5.75;;;3.67;;
48203;SDS011;33994;50.998;5.864;2022-11-15T05:57:39;6.88;;;3.92;;
48203;SDS011;33994;50.998;5.864;2022-11-15T06:00:44;3.65;;;2.67;;
48203;SDS011;33994;50.998;5.864;2022-11-15T06:03:48;6.70;;;2.85;;
48203;SDS011;33994;50.998;5.864;2022-11-15T06:06:52;4.82;;;2.83;;
48203;SDS011;33994;50.998;5.864;2022-11-15T06:09:58;4.95;;;2.53;;
48203;SDS011;33994;50.998;5.864;2022-11-15T06:13:02;3.25;;;2.33;;
48203;SDS011;33994;50.998;5.864;2022-11-15T06:16:08;4.28;;;2.00;;
48203;SDS011;33994;50.998;5.864;2022-11-15T06:19:12;2.72;;;1.80;;
48203;SDS011;33994;50.998;5.864;2022-11-15T06:22:16;8.73;;;2.00;;
48203;SDS011;33994;50.998;5.864;2022-11-15T06:25:22;5.60;;;2.20;;
48203;SDS011;33994;50.998;5.864;2022-11-15T06:28:27;15.55;;;5.40;;
48203;SDS011;33994;50.998;5.864;2022-11-15T06:31:33;22.35;;;4.50;;
48203;SDS011;33994;50.998;5.864;2022-11-15T06:34:37;12.73;;;3.83;;
48203;SDS011;33994;50.998;5.864;2022-11-15T06:37:42;23.27;;;5.40;;
48203;SDS011;33994;50.998;5.864;2022-11-15T06:40:48;45.17;;;6.82;;
48203;SDS011;33994;50.998;5.864;2022-11-15T06:43:52;38.50;;;6.88;;
48203;SDS011;33994;50.998;5.864;2022-11-15T06:46:56;31.48;;;5.70;;
48203;SDS011;33994;50.998;5.864;2022-11-15T06:50:00;32.97;;;5.32;;
48203;SDS011;33994;50.998;5.864;2022-11-15T06:53:05;50.47;;;7.75;;
48203;SDS011;33994;50.998;5.864;2022-11-15T06:56:10;55.30;;;7.63;;
48203;SDS011;33994;50.998;5.864;2022-11-15T06:59:15;45.92;;;7.22;;
48203;SDS011;33994;50.998;5.864;2022-11-15T07:02:19;45.88;;;10.82;;
48203;SDS011;33994;50.998;5.864;2022-11-15T07:05:23;18.38;;;4.20;;
48203;SDS011;33994;50.998;5.864;2022-11-15T07:08:28;16.23;;;3.90;;
48203;SDS011;33994;50.998;5.864;2022-11-15T07:11:34;17.13;;;3.42;;
48203;SDS011;33994;50.998;5.864;2022-11-15T07:14:38;10.38;;;2.78;;
48203;SDS011;33994;50.998;5.864;2022-11-15T07:17:43;20.85;;;5.18;;
48203;SDS011;33994;50.998;5.864;2022-11-15T07:20:47;34.90;;;4.65;;
48203;SDS011;33994;50.998;5.864;2022-11-15T07:23:51;27.67;;;3.40;;
48203;SDS011;33994;50.998;5.864;2022-11-15T07:26:57;15.40;;;2.72;;
48203;SDS011;33994;50.998;5.864;2022-11-15T07:30:03;15.63;;;3.20;;
48203;SDS011;33994;50.998;5.864;2022-11-15T07:33:08;10.88;;;3.63;;
48203;SDS011;33994;50.998;5.864;2022-11-15T07:36:12;6.47;;;2.60;;
48203;SDS011;33994;50.998;5.864;2022-11-15T07:39:16;4.18;;;1.85;;
48203;SDS011;33994;50.998;5.864;2022-11-15T07:42:22;34.85;;;9.60;;
48203;SDS011;33994;50.998;5.864;2022-11-15T07:45:44;30.80;;;8.10;;
48203;SDS011;33994;50.998;5.864;2022-11-15T07:48:49;16.50;;;3.83;;
48203;SDS011;33994;50.998;5.864;2022-11-15T07:51:53;11.63;;;3.38;;
48203;SDS011;33994;50.998;5.864;2022-11-15T07:54:58;6.78;;;2.60;;
48203;SDS011;33994;50.998;5.864;2022-11-15T07:58:04;7.00;;;2.25;;
48203;SDS011;33994;50.998;5.864;2022-11-15T08:01:09;20.23;;;4.38;;
48203;SDS011;33994;50.998;5.864;2022-11-15T08:04:14;32.05;;;7.85;;
48203;SDS011;33994;50.998;5.864;2022-11-15T08:07:18;25.67;;;7.97;;
48203;SDS011;33994;50.998;5.864;2022-11-15T08:10:22;26.13;;;9.65;;
48203;SDS011;33994;50.998;5.864;2022-11-15T08:13:29;24.75;;;8.57;;
48203;SDS011;33994;50.998;5.864;2022-11-15T08:16:33;67.10;;;23.05;;
48203;SDS011;33994;50.998;5.864;2022-11-15T08:19:37;42.17;;;13.13;;
48203;SDS011;33994;50.998;5.864;2022-11-15T08:22:41;57.72;;;23.08;;
48203;SDS011;33994;50.998;5.864;2022-11-15T08:25:46;31.52;;;9.80;;
48203;SDS011;33994;50.998;5.864;2022-11-15T08:28:51;52.25;;;16.42;;
48203;SDS011;33994;50.998;5.864;2022-11-15T08:31:56;101.10;;;35.88;;
48203;SDS011;33994;50.998;5.864;2022-11-15T08:35:00;41.47;;;14.82;;
48203;SDS011;33994;50.998;5.864;2022-11-15T08:38:05;44.72;;;16.40;;
48203;SDS011;33994;50.998;5.864;2022-11-15T08:41:12;48.35;;;18.55;;
48203;SDS011;33994;50.998;5.864;2022-11-15T08:44:22;59.63;;;21.42;;
48203;SDS011;33994;50.998;5.864;2022-11-15T08:47:26;46.05;;;17.02;;
48203;SDS011;33994;50.998;5.864;2022-11-15T08:50:30;92.60;;;35.20;;
48203;SDS011;33994;50.998;5.864;2022-11-15T08:53:35;71.35;;;21.92;;
48203;SDS011;33994;50.998;5.864;2022-11-15T08:56:39;70.03;;;25.92;;
48203;SDS011;33994;50.998;5.864;2022-11-15T08:59:45;42.83;;;14.30;;
48203;SDS011;33994;50.998;5.864;2022-11-15T09:02:49;56.25;;;18.35;;
48203;SDS011;33994;50.998;5.864;2022-11-15T09:05:54;35.97;;;9.07;;
48203;SDS011;33994;50.998;5.864;2022-11-15T09:09:00;24.60;;;6.43;;
48203;SDS011;33994;50.998;5.864;2022-11-15T09:12:05;23.20;;;7.53;;
48203;SDS011;33994;50.998;5.864;2022-11-15T09:15:11;15.60;;;3.60;;
48203;SDS011;33994;50.998;5.864;2022-11-15T09:18:16;14.88;;;2.95;;
48203;SDS011;33994;50.998;5.864;2022-11-15T09:21:20;8.40;;;2.53;;
48203;SDS011;33994;50.998;5.864;2022-11-15T09:24:24;7.38;;;2.22;;
48203;SDS011;33994;50.998;5.864;2022-11-15T09:27:28;15.02;;;3.17;;
48203;SDS011;33994;50.998;5.864;2022-11-15T09:30:35;10.00;;;2.42;;
48203;SDS011;33994;50.998;5.864;2022-11-15T09:33:39;13.93;;;3.42;;
48203;SDS011;33994;50.998;5.864;2022-11-15T09:36:46;12.10;;;2.40;;
48203;SDS011;33994;50.998;5.864;2022-11-15T09:39:51;17.55;;;2.33;;
48203;SDS011;33994;50.998;5.864;2022-11-15T09:42:59;15.35;;;3.55;;
48203;SDS011;33994;50.998;5.864;2022-11-15T09:46:13;17.63;;;3.92;;
48203;SDS011;33994;50.998;5.864;2022-11-15T09:49:21;17.67;;;3.70;;
48203;SDS011;33994;50.998;5.864;2022-11-15T09:52:28;11.32;;;2.60;;
48203;SDS011;33994;50.998;5.864;2022-11-15T09:55:13;19.48;;;3.55;;
48203;SDS011;33994;50.998;5.864;2022-11-15T09:58:07;8.77;;;2.90;;
48203;SDS011;33994;50.998;5.864;2022-11-15T10:01:02;15.60;;;3.65;;
48203;SDS011;33994;50.998;5.864;2022-11-15T10:03:53;21.23;;;4.53;;
48203;SDS011;33994;50.998;5.864;2022-11-15T10:06:44;49.40;;;16.08;;
48203;SDS011;33994;50.998;5.864;2022-11-15T10:09:38;51.63;;;13.75;;
48203;SDS011;33994;50.998;5.864;2022-11-15T10:12:31;283.63;;;115.72;;
48203;SDS011;33994;50.998;5.864;2022-11-15T10:15:17;163.70;;;60.75;;
48203;SDS011;33994;50.998;5.864;2022-11-15T10:18:13;50.45;;;17.95;;
48203;SDS011;33994;50.998;5.864;2022-11-15T10:21:17;107.70;;;49.45;;
48203;SDS011;33994;50.998;5.864;2022-11-15T10:24:16;76.38;;;27.63;;
48203;SDS011;33994;50.998;5.864;2022-11-15T10:27:09;43.13;;;13.63;;
48203;SDS011;33994;50.998;5.864;2022-11-15T10:29:57;55.40;;;18.63;;
48203;SDS011;33994;50.998;5.864;2022-11-15T10:32:43;70.57;;;25.75;;
48203;SDS011;33994;50.998;5.864;2022-11-15T10:35:29;38.35;;;12.95;;
48203;SDS011;33994;50.998;5.864;2022-11-15T10:38:16;34.67;;;9.25;;
48203;SDS011;33994;50.998;5.864;2022-11-15T10:41:06;27.10;;;8.65;;
48203;SDS011;33994;50.998;5.864;2022-11-15T10:44:01;50.35;;;20.45;;
48203;SDS011;33994;50.998;5.864;2022-11-15T10:50:26;15.18;;;5.68;;
48203;SDS011;33994;50.998;5.864;2022-11-15T10:53:15;21.67;;;6.88;;
48203;SDS011;33994;50.998;5.864;2022-11-15T10:56:07;13.25;;;2.70;;
48203;SDS011;33994;50.998;5.864;2022-11-15T10:58:56;10.20;;;2.13;;
48203;SDS011;33994;50.998;5.864;2022-11-15T11:01:46;27.45;;;4.93;;
48203;SDS011;33994;50.998;5.864;2022-11-15T11:04:40;14.35;;;2.80;;
48203;SDS011;33994;50.998;5.864;2022-11-15T11:07:34;13.18;;;2.72;;
48203;SDS011;33994;50.998;5.864;2022-11-15T11:10:22;50.65;;;20.23;;
48203;SDS011;33994;50.998;5.864;2022-11-15T11:13:14;28.60;;;8.55;;
48203;SDS011;33994;50.998;5.864;2022-11-15T11:16:07;83.68;;;28.10;;
48203;SDS011;33994;50.998;5.864;2022-11-15T11:19:05;102.22;;;36.35;;
48203;SDS011;33994;50.998;5.864;2022-11-15T11:22:05;80.57;;;27.48;;
48203;SDS011;33994;50.998;5.864;2022-11-15T11:25:08;103.15;;;33.22;;
48203;SDS011;33994;50.998;5.864;2022-11-15T11:28:10;114.20;;;37.85;;
48203;SDS011;33994;50.998;5.864;2022-11-15T11:31:11;63.42;;;21.13;;
48203;SDS011;33994;50.998;5.864;2022-11-15T11:34:04;58.83;;;16.55;;
48203;SDS011;33994;50.998;5.864;2022-11-15T11:37:01;95.45;;;30.73;;
48203;SDS011;33994;50.998;5.864;2022-11-15T11:39:52;78.68;;;29.05;;
48203;SDS011;33994;50.998;5.864;2022-11-15T11:42:49;74.75;;;23.73;;
48203;SDS011;33994;50.998;5.864;2022-11-15T11:48:58;57.47;;;21.08;;
48203;SDS011;33994;50.998;5.864;2022-11-15T11:51:54;56.45;;;18.02;;
48203;SDS011;33994;50.998;5.864;2022-11-15T11:54:48;34.58;;;9.65;;
48203;SDS011;33994;50.998;5.864;2022-11-15T11:57:41;46.90;;;13.25;;
48203;SDS011;33994;50.998;5.864;2022-11-15T12:00:33;31.27;;;6.85;;
48203;SDS011;33994;50.998;5.864;2022-11-15T12:03:26;19.98;;;4.40;;
48203;SDS011;33994;50.998;5.864;2022-11-15T12:06:21;34.42;;;7.00;;
48203;SDS011;33994;50.998;5.864;2022-11-15T12:09:13;21.50;;;3.60;;
48203;SDS011;33994;50.998;5.864;2022-11-15T12:12:05;37.72;;;7.40;;
48203;SDS011;33994;50.998;5.864;2022-11-15T12:14:56;34.35;;;6.57;;
48203;SDS011;33994;50.998;5.864;2022-11-15T12:17:46;16.00;;;4.45;;
48203;SDS011;33994;50.998;5.864;2022-11-15T12:20:35;18.40;;;3.38;;
48203;SDS011;33994;50.998;5.864;2022-11-15T12:23:26;24.33;;;4.20;;
48203;SDS011;33994;50.998;5.864;2022-11-15T12:26:17;15.45;;;3.88;;
48203;SDS011;33994;50.998;5.864;2022-11-15T12:29:09;21.45;;;4.13;;
48203;SDS011;33994;50.998;5.864;2022-11-15T12:32:00;17.00;;;5.55;;
48203;SDS011;33994;50.998;5.864;2022-11-15T12:34:48;14.13;;;3.60;;
48203;SDS011;33994;50.998;5.864;2022-11-15T12:43:58;82.53;;;23.30;;
48203;SDS011;33994;50.998;5.864;2022-11-15T12:47:02;43.27;;;11.73;;
48203;SDS011;33994;50.998;5.864;2022-11-15T12:49:49;102.13;;;36.85;;
48203;SDS011;33994;50.998;5.864;2022-11-15T12:52:35;22.37;;;8.00;;
48203;SDS011;33994;50.998;5.864;2022-11-15T12:55:29;72.13;;;22.02;;
48203;SDS011;33994;50.998;5.864;2022-11-15T12:58:26;76.95;;;22.42;;
48203;SDS011;33994;50.998;5.864;2022-11-15T13:04:41;184.80;;;60.00;;
48203;SDS011;33994;50.998;5.864;2022-11-15T13:10:43;107.07;;;31.85;;
48203;SDS011;33994;50.998;5.864;2022-11-15T13:13:43;49.38;;;12.15;;
48203;SDS011;33994;50.998;5.864;2022-11-15T13:16:29;59.88;;;18.98;;
48203;SDS011;33994;50.998;5.864;2022-11-15T13:19:15;36.53;;;10.63;;
48203;SDS011;33994;50.998;5.864;2022-11-15T13:22:10;43.13;;;9.95;;
48203;SDS011;33994;50.998;5.864;2022-11-15T13:25:16;29.52;;;5.80;;
48203;SDS011;33994;50.998;5.864;2022-11-15T13:28:09;27.50;;;4.65;;
48203;SDS011;33994;50.998;5.864;2022-11-15T13:31:14;32.13;;;6.65;;
48203;SDS011;33994;50.998;5.864;2022-11-15T13:34:14;78.13;;;17.75;;
48203;SDS011;33994;50.998;5.864;2022-11-15T13:37:11;94.55;;;31.10;;
48203;SDS011;33994;50.998;5.864;2022-11-15T13:40:20;179.57;;;63.58;;
48203;SDS011;33994;50.998;5.864;2022-11-15T13:43:17;46.90;;;15.95;;
48203;SDS011;33994;50.998;5.864;2022-11-15T13:46:15;161.05;;;56.35;;
48203;SDS011;33994;50.998;5.864;2022-11-15T13:49:03;53.50;;;16.80;;
48203;SDS011;33994;50.998;5.864;2022-11-15T13:51:50;104.18;;;28.08;;
48203;SDS011;33994;50.998;5.864;2022-11-15T13:54:40;206.68;;;84.22;;
48203;SDS011;33994;50.998;5.864;2022-11-15T13:57:30;122.35;;;34.75;;
48203;SDS011;33994;50.998;5.864;2022-11-15T14:00:30;229.10;;;93.40;;
48203;SDS011;33994;50.998;5.864;2022-11-15T14:03:22;153.20;;;60.67;;
48203;SDS011;33994;50.998;5.864;2022-11-15T14:06:12;537.90;;;177.60;;
48203;SDS011;33994;50.998;5.864;2022-11-15T14:09:02;361.27;;;109.72;;
48203;SDS011;33994;50.998;5.864;2022-11-15T14:12:20;99.32;;;26.27;;
48203;SDS011;33994;50.998;5.864;2022-11-15T14:15:18;53.58;;;13.75;;
48203;SDS011;33994;50.998;5.864;2022-11-15T14:21:29;8.43;;;2.90;;
48203;SDS011;33994;50.998;5.864;2022-11-15T14:27:15;19.10;;;3.92;;
48203;SDS011;33994;50.998;5.864;2022-11-15T14:30:02;7.15;;;2.40;;
48203;SDS011;33994;50.998;5.864;2022-11-15T14:32:48;7.88;;;1.90;;
48203;SDS011;33994;50.998;5.864;2022-11-15T14:35:37;6.07;;;2.00;;
48203;SDS011;33994;50.998;5.864;2022-11-15T14:38:25;5.82;;;1.70;;
48203;SDS011;33994;50.998;5.864;2022-11-15T14:41:17;3.88;;;2.05;;
48203;SDS011;33994;50.998;5.864;2022-11-15T14:44:05;2.92;;;1.10;;
48203;SDS011;33994;50.998;5.864;2022-11-15T14:46:55;4.97;;;2.05;;
48203;SDS011;33994;50.998;5.864;2022-11-15T14:49:40;2.60;;;1.42;;
48203;SDS011;33994;50.998;5.864;2022-11-15T14:52:26;1.98;;;1.20;;
48203;SDS011;33994;50.998;5.864;2022-11-15T14:55:16;3.45;;;1.20;;
48203;SDS011;33994;50.998;5.864;2022-11-15T14:58:04;4.13;;;1.55;;
48203;SDS011;33994;50.998;5.864;2022-11-15T15:00:51;3.45;;;1.60;;
48203;SDS011;33994;50.998;5.864;2022-11-15T15:03:37;2.97;;;1.48;;
48203;SDS011;33994;50.998;5.864;2022-11-15T15:06:22;4.10;;;1.50;;
48203;SDS011;33994;50.998;5.864;2022-11-15T15:09:08;4.18;;;1.30;;
48203;SDS011;33994;50.998;5.864;2022-11-15T15:11:55;3.78;;;2.13;;
48203;SDS011;33994;50.998;5.864;2022-11-15T15:14:40;4.25;;;2.13;;
48203;SDS011;33994;50.998;5.864;2022-11-15T15:17:26;2.83;;;1.60;;
48203;SDS011;33994;50.998;5.864;2022-11-15T15:20:11;3.92;;;1.70;;
48203;SDS011;33994;50.998;5.864;2022-11-15T15:22:56;3.63;;;1.50;;
48203;SDS011;33994;50.998;5.864;2022-11-15T15:25:42;5.22;;;1.80;;
48203;SDS011;33994;50.998;5.864;2022-11-15T15:28:30;3.65;;;1.63;;
48203;SDS011;33994;50.998;5.864;2022-11-15T15:31:15;3.53;;;1.52;;
48203;SDS011;33994;50.998;5.864;2022-11-15T15:34:01;6.55;;;1.52;;
48203;SDS011;33994;50.998;5.864;2022-11-15T15:36:47;3.58;;;1.38;;
48203;SDS011;33994;50.998;5.864;2022-11-15T15:39:32;3.42;;;1.60;;
48203;SDS011;33994;50.998;5.864;2022-11-15T15:42:18;4.97;;;1.70;;
48203;SDS011;33994;50.998;5.864;2022-11-15T15:45:06;3.83;;;1.90;;
48203;SDS011;33994;50.998;5.864;2022-11-15T15:47:53;5.65;;;1.50;;
48203;SDS011;33994;50.998;5.864;2022-11-15T15:50:39;3.83;;;1.42;;
48203;SDS011;33994;50.998;5.864;2022-11-15T15:53:26;3.50;;;1.63;;
48203;SDS011;33994;50.998;5.864;2022-11-15T15:56:13;2.58;;;1.58;;
48203;SDS011;33994;50.998;5.864;2022-11-15T15:58:58;3.80;;;1.38;;
48203;SDS011;33994;50.998;5.864;2022-11-15T16:01:45;2.63;;;1.30;;
48203;SDS011;33994;50.998;5.864;2022-11-15T16:04:30;4.05;;;1.38;;
48203;SDS011;33994;50.998;5.864;2022-11-15T16:07:17;6.57;;;1.73;;
48203;SDS011;33994;50.998;5.864;2022-11-15T16:10:14;3.63;;;1.98;;
48203;SDS011;33994;50.998;5.864;2022-11-15T16:13:04;4.28;;;2.15;;
48203;SDS011;33994;50.998;5.864;2022-11-15T16:15:50;2.17;;;1.55;;
48203;SDS011;33994;50.998;5.864;2022-11-15T16:18:39;4.65;;;1.95;;
48203;SDS011;33994;50.998;5.864;2022-11-15T16:21:25;4.13;;;1.80;;
48203;SDS011;33994;50.998;5.864;2022-11-15T16:24:11;2.78;;;1.60;;
48203;SDS011;33994;50.998;5.864;2022-11-15T16:26:56;5.35;;;2.95;;
48203;SDS011;33994;50.998;5.864;2022-11-15T16:29:42;2.42;;;1.60;;
48203;SDS011;33994;50.998;5.864;2022-11-15T16:32:28;3.65;;;1.67;;
48203;SDS011;33994;50.998;5.864;2022-11-15T16:35:15;4.47;;;1.80;;
48203;SDS011;33994;50.998;5.864;2022-11-15T16:38:02;3.15;;;1.70;;
48203;SDS011;33994;50.998;5.864;2022-11-15T16:40:47;4.32;;;1.90;;
48203;SDS011;33994;50.998;5.864;2022-11-15T16:43:33;2.83;;;1.90;;
48203;SDS011;33994;50.998;5.864;2022-11-15T16:46:18;6.68;;;2.83;;
48203;SDS011;33994;50.998;5.864;2022-11-15T16:49:05;2.63;;;1.70;;
48203;SDS011;33994;50.998;5.864;2022-11-15T16:51:58;4.32;;;2.00;;
48203;SDS011;33994;50.998;5.864;2022-11-15T16:54:44;4.20;;;1.92;;
48203;SDS011;33994;50.998;5.864;2022-11-15T16:57:29;3.58;;;2.25;;
48203;SDS011;33994;50.998;5.864;2022-11-15T17:00:14;6.82;;;2.72;;
48203;SDS011;33994;50.998;5.864;2022-11-15T17:03:01;3.85;;;2.17;;
48203;SDS011;33994;50.998;5.864;2022-11-15T17:05:47;4.22;;;1.90;;
48203;SDS011;33994;50.998;5.864;2022-11-15T17:08:34;3.75;;;2.50;;
48203;SDS011;33994;50.998;5.864;2022-11-15T17:11:20;4.32;;;2.90;;
48203;SDS011;33994;50.998;5.864;2022-11-15T17:14:06;2.80;;;2.25;;
48203;SDS011;33994;50.998;5.864;2022-11-15T17:16:52;5.80;;;2.80;;
48203;SDS011;33994;50.998;5.864;2022-11-15T17:19:38;7.50;;;2.60;;
48203;SDS011;33994;50.998;5.864;2022-11-15T17:22:23;6.05;;;2.78;;
48203;SDS011;33994;50.998;5.864;2022-11-15T17:25:10;4.80;;;2.70;;
48203;SDS011;33994;50.998;5.864;2022-11-15T17:27:56;2.92;;;2.28;;
48203;SDS011;33994;50.998;5.864;2022-11-15T17:30:41;4.55;;;2.80;;
48203;SDS011;33994;50.998;5.864;2022-11-15T17:33:27;6.28;;;2.70;;
48203;SDS011;33994;50.998;5.864;2022-11-15T17:36:12;4.50;;;2.90;;
48203;SDS011;33994;50.998;5.864;2022-11-15T17:38:58;2.95;;;2.47;;
48203;SDS011;33994;50.998;5.864;2022-11-15T17:41:44;4.30;;;2.70;;
48203;SDS011;33994;50.998;5.864;2022-11-15T17:44:30;4.18;;;2.60;;
48203;SDS011;33994;50.998;5.864;2022-11-15T17:47:16;3.28;;;2.70;;
48203;SDS011;33994;50.998;5.864;2022-11-15T17:50:01;4.57;;;2.90;;
48203;SDS011;33994;50.998;5.864;2022-11-15T17:52:47;7.10;;;3.08;;
48203;SDS011;33994;50.998;5.864;2022-11-15T17:55:33;5.93;;;2.92;;
48203;SDS011;33994;50.998;5.864;2022-11-15T17:58:19;4.07;;;3.13;;
48203;SDS011;33994;50.998;5.864;2022-11-15T18:01:05;4.47;;;3.28;;
48203;SDS011;33994;50.998;5.864;2022-11-15T18:03:52;5.25;;;3.55;;
48203;SDS011;33994;50.998;5.864;2022-11-15T18:06:38;6.93;;;3.58;;
48203;SDS011;33994;50.998;5.864;2022-11-15T18:09:23;5.82;;;3.92;;
48203;SDS011;33994;50.998;5.864;2022-11-15T18:12:09;8.20;;;3.97;;
48203;SDS011;33994;50.998;5.864;2022-11-15T18:14:56;6.93;;;4.38;;
48203;SDS011;33994;50.998;5.864;2022-11-15T18:17:43;5.05;;;3.00;;